sensor_id;sensor_type;location;lat;lon;timestamp;pressure;altitude;pressure_sealevel;temperature;humidity
57644;BME280;43474;46.510;6.686;2023-12-28T00:00:46;96927.56;;;4.31;100.00
57644;BME280;43474;46.510;6.686;2023-12-28T00:03:33;96930.69;;;4.05;100.00
57644;BME280;43474;46.510;6.686;2023-12-28T00:05:59;96934.84;;;4.14;100.00
57644;BME280;43474;46.510;6.686;2023-12-28T00:08:25;96984.09;;;4.49;100.00
57644;BME280;43474;46.510;6.686;2023-12-28T00:10:50;96969.72;;;4.45;100.00
57644;BME280;43474;46.510;6.686;2023-12-28T00:13:17;96962.69;;;4.30;100.00
57644;BME280;43474;46.510;6.686;2023-12-28T00:15:43;96941.59;;;4.38;100.00
57644;BME280;43474;46.510;6.686;2023-12-28T00:18:08;96961.78;;;4.38;100.00
57644;BME280;43474;46.510;6.686;2023-12-28T00:20:34;96958.63;;;4.28;100.00
57644;BME280;43474;46.510;6.686;2023-12-28T00:23:00;96966.78;;;4.18;100.00
57644;BME280;43474;46.510;6.686;2023-12-28T00:25:25;96968.03;;;4.07;100.00
57644;BME280;43474;46.510;6.686;2023-12-28T00:27:51;96928.00;;;3.84;100.00
57644;BME280;43474;46.510;6.686;2023-12-28T00:30:17;96962.69;;;4.15;100.00
57644;BME280;43474;46.510;6.686;2023-12-28T00:32:43;96982.41;;;4.26;100.00
57644;BME280;43474;46.510;6.686;2023-12-28T00:35:10;96985.47;;;4.45;100.00
57644;BME280;43474;46.510;6.686;2023-12-28T00:37:36;96977.25;;;4.33;100.00
57644;BME280;43474;46.510;6.686;2023-12-28T00:40:02;96942.00;;;4.06;100.00
57644;BME280;43474;46.510;6.686;2023-12-28T00:42:28;96981.56;;;4.40;100.00
57644;BME280;43474;46.510;6.686;2023-12-28T00:44:54;96979.94;;;4.39;100.00
57644;BME280;43474;46.510;6.686;2023-12-28T00:47:20;96953.50;;;4.41;100.00
57644;BME280;43474;46.510;6.686;2023-12-28T00:49:45;96948.78;;;4.51;100.00
57644;BME280;43474;46.510;6.686;2023-12-28T00:52:11;96964.19;;;4.76;100.00
57644;BME280;43474;46.510;6.686;2023-12-28T00:54:37;96983.16;;;4.92;100.00
57644;BME280;43474;46.510;6.686;2023-12-28T00:57:03;96992.78;;;4.85;100.00
57644;BME280;43474;46.510;6.686;2023-12-28T00:59:29;96980.91;;;4.89;100.00
57644;BME280;43474;46.510;6.686;2023-12-28T01:01:58;96978.38;;;4.81;100.00
57644;BME280;43474;46.510;6.686;2023-12-28T01:04:23;96966.00;;;4.75;100.00
57644;BME280;43474;46.510;6.686;2023-12-28T01:06:49;97008.59;;;4.92;100.00
57644;BME280;43474;46.510;6.686;2023-12-28T01:09:15;97018.78;;;4.80;100.00
57644;BME280;43474;46.510;6.686;2023-12-28T01:11:41;97012.28;;;4.61;100.00
57644;BME280;43474;46.510;6.686;2023-12-28T01:14:07;97007.44;;;4.44;100.00
57644;BME280;43474;46.510;6.686;2023-12-28T01:16:33;96979.50;;;4.21;100.00
57644;BME280;43474;46.510;6.686;2023-12-28T01:18:58;97006.81;;;4.27;100.00
57644;BME280;43474;46.510;6.686;2023-12-28T01:21:24;96989.28;;;4.12;100.00
57644;BME280;43474;46.510;6.686;2023-12-28T01:23:53;97014.88;;;4.25;100.00
57644;BME280;43474;46.510;6.686;2023-12-28T01:26:20;96972.03;;;3.88;100.00
57644;BME280;43474;46.510;6.686;2023-12-28T01:28:45;97012.53;;;4.15;100.00
57644;BME280;43474;46.510;6.686;2023-12-28T01:31:12;96968.59;;;3.73;100.00
57644;BME280;43474;46.510;6.686;2023-12-28T01:33:37;97010.34;;;3.89;100.00
57644;BME280;43474;46.510;6.686;2023-12-28T01:36:17;97008.00;;;3.95;100.00
57644;BME280;43474;46.510;6.686;2023-12-28T01:38:43;97005.91;;;3.90;100.00
57644;BME280;43474;46.510;6.686;2023-12-28T01:41:09;96986.47;;;3.70;100.00
57644;BME280;43474;46.510;6.686;2023-12-28T01:43:34;96975.06;;;3.62;100.00
57644;BME280;43474;46.510;6.686;2023-12-28T01:46:00;96984.47;;;3.72;100.00
57644;BME280;43474;46.510;6.686;2023-12-28T01:48:26;96980.16;;;3.79;100.00
57644;BME280;43474;46.510;6.686;2023-12-28T01:50:54;97027.38;;;4.08;100.00
57644;BME280;43474;46.510;6.686;2023-12-28T01:53:19;96979.50;;;3.77;100.00
57644;BME280;43474;46.510;6.686;2023-12-28T01:55:45;97008.34;;;3.92;100.00
57644;BME280;43474;46.510;6.686;2023-12-28T01:58:11;97015.06;;;3.94;100.00
57644;BME280;43474;46.510;6.686;2023-12-28T02:00:37;97001.13;;;3.79;100.00
57644;BME280;43474;46.510;6.686;2023-12-28T02:03:06;97023.47;;;3.89;100.00
57644;BME280;43474;46.510;6.686;2023-12-28T02:05:33;96976.19;;;3.83;100.00
57644;BME280;43474;46.510;6.686;2023-12-28T02:07:59;96950.06;;;3.89;100.00
57644;BME280;43474;46.510;6.686;2023-12-28T02:10:25;96996.16;;;4.13;100.00
57644;BME280;43474;46.510;6.686;2023-12-28T02:12:51;97021.66;;;4.34;100.00
57644;BME280;43474;46.510;6.686;2023-12-28T02:15:19;97041.38;;;4.45;100.00
57644;BME280;43474;46.510;6.686;2023-12-28T02:20:36;97048.63;;;4.43;100.00
57644;BME280;43474;46.510;6.686;2023-12-28T02:23:04;97051.78;;;4.53;100.00
57644;BME280;43474;46.510;6.686;2023-12-28T02:25:30;97025.44;;;4.32;100.00
57644;BME280;43474;46.510;6.686;2023-12-28T02:27:55;97039.22;;;4.49;100.00
57644;BME280;43474;46.510;6.686;2023-12-28T02:30:22;97057.09;;;4.60;100.00
57644;BME280;43474;46.510;6.686;2023-12-28T02:33:19;97049.22;;;4.60;100.00
57644;BME280;43474;46.510;6.686;2023-12-28T02:35:55;97035.66;;;4.41;100.00
57644;BME280;43474;46.510;6.686;2023-12-28T02:38:23;97060.81;;;4.65;100.00
57644;BME280;43474;46.510;6.686;2023-12-28T02:40:50;97034.38;;;4.52;100.00
57644;BME280;43474;46.510;6.686;2023-12-28T02:43:16;97008.19;;;4.23;100.00
57644;BME280;43474;46.510;6.686;2023-12-28T02:45:42;97050.13;;;4.52;100.00
57644;BME280;43474;46.510;6.686;2023-12-28T02:48:08;97040.50;;;4.38;100.00
57644;BME280;43474;46.510;6.686;2023-12-28T02:50:34;97008.81;;;4.25;100.00
57644;BME280;43474;46.510;6.686;2023-12-28T02:53:00;97060.00;;;4.50;100.00
57644;BME280;43474;46.510;6.686;2023-12-28T02:55:26;97038.03;;;4.36;100.00
57644;BME280;43474;46.510;6.686;2023-12-28T02:57:54;97048.16;;;4.25;100.00
57644;BME280;43474;46.510;6.686;2023-12-28T03:00:21;97047.44;;;4.16;100.00
57644;BME280;43474;46.510;6.686;2023-12-28T03:02:46;97038.94;;;4.14;100.00
57644;BME280;43474;46.510;6.686;2023-12-28T03:05:12;97010.34;;;3.89;100.00
57644;BME280;43474;46.510;6.686;2023-12-28T03:07:38;97034.31;;;4.01;100.00
57644;BME280;43474;46.510;6.686;2023-12-28T03:10:06;97029.44;;;3.98;100.00
57644;BME280;43474;46.510;6.686;2023-12-28T03:12:32;97000.69;;;3.90;100.00
57644;BME280;43474;46.510;6.686;2023-12-28T03:14:57;96960.53;;;3.60;100.00
57644;BME280;43474;46.510;6.686;2023-12-28T03:17:23;96974.53;;;3.67;100.00
57644;BME280;43474;46.510;6.686;2023-12-28T03:19:49;96995.69;;;3.66;100.00
57644;BME280;43474;46.510;6.686;2023-12-28T03:22:15;96977.19;;;3.29;100.00
57644;BME280;43474;46.510;6.686;2023-12-28T03:24:40;97011.97;;;3.38;100.00
57644;BME280;43474;46.510;6.686;2023-12-28T03:27:06;97024.44;;;3.36;100.00
57644;BME280;43474;46.510;6.686;2023-12-28T03:29:33;97020.72;;;3.30;100.00
57644;BME280;43474;46.510;6.686;2023-12-28T03:31:59;97020.47;;;3.17;100.00
57644;BME280;43474;46.510;6.686;2023-12-28T03:34:25;97028.84;;;3.13;100.00
57644;BME280;43474;46.510;6.686;2023-12-28T03:36:52;96999.91;;;2.83;100.00
57644;BME280;43474;46.510;6.686;2023-12-28T03:39:19;97007.16;;;2.81;100.00
57644;BME280;43474;46.510;6.686;2023-12-28T03:41:44;97036.53;;;2.91;100.00
57644;BME280;43474;46.510;6.686;2023-12-28T03:44:10;96998.06;;;2.69;100.00
57644;BME280;43474;46.510;6.686;2023-12-28T03:46:36;97025.47;;;2.81;100.00
57644;BME280;43474;46.510;6.686;2023-12-28T03:49:01;97021.22;;;2.80;100.00
57644;BME280;43474;46.510;6.686;2023-12-28T03:51:27;96995.47;;;2.69;100.00
57644;BME280;43474;46.510;6.686;2023-12-28T03:53:53;97006.84;;;2.76;100.00
57644;BME280;43474;46.510;6.686;2023-12-28T03:56:22;97008.94;;;2.80;100.00
57644;BME280;43474;46.510;6.686;2023-12-28T03:58:49;97019.41;;;2.80;100.00
57644;BME280;43474;46.510;6.686;2023-12-28T04:01:19;97004.63;;;2.65;100.00
57644;BME280;43474;46.510;6.686;2023-12-28T04:03:45;96966.34;;;2.41;100.00
57644;BME280;43474;46.510;6.686;2023-12-28T04:06:11;96973.84;;;2.44;100.00
57644;BME280;43474;46.510;6.686;2023-12-28T04:08:38;96988.16;;;2.56;100.00
57644;BME280;43474;46.510;6.686;2023-12-28T04:11:04;96987.34;;;2.55;100.00
57644;BME280;43474;46.510;6.686;2023-12-28T04:13:29;96967.78;;;2.43;100.00
57644;BME280;43474;46.510;6.686;2023-12-28T04:15:55;96997.78;;;2.87;100.00
57644;BME280;43474;46.510;6.686;2023-12-28T04:18:21;96966.19;;;2.88;100.00
57644;BME280;43474;46.510;6.686;2023-12-28T04:20:47;97001.84;;;3.12;100.00
57644;BME280;43474;46.510;6.686;2023-12-28T04:23:13;96976.38;;;3.06;100.00
57644;BME280;43474;46.510;6.686;2023-12-28T04:25:39;96955.03;;;2.94;100.00
57644;BME280;43474;46.510;6.686;2023-12-28T04:28:06;96988.19;;;3.25;100.00
57644;BME280;43474;46.510;6.686;2023-12-28T04:30:32;96987.28;;;3.32;100.00
57644;BME280;43474;46.510;6.686;2023-12-28T04:32:57;96974.06;;;3.11;100.00
57644;BME280;43474;46.510;6.686;2023-12-28T04:35:23;97011.13;;;3.60;100.00
57644;BME280;43474;46.510;6.686;2023-12-28T04:37:49;97008.28;;;3.47;100.00
57644;BME280;43474;46.510;6.686;2023-12-28T04:40:15;96955.63;;;3.04;100.00
57644;BME280;43474;46.510;6.686;2023-12-28T04:42:42;96989.22;;;3.16;100.00
57644;BME280;43474;46.510;6.686;2023-12-28T04:45:09;97015.38;;;3.24;100.00
57644;BME280;43474;46.510;6.686;2023-12-28T04:47:36;96978.19;;;3.05;100.00
57644;BME280;43474;46.510;6.686;2023-12-28T04:50:02;96966.72;;;3.06;100.00
57644;BME280;43474;46.510;6.686;2023-12-28T04:52:28;97021.38;;;3.47;100.00
57644;BME280;43474;46.510;6.686;2023-12-28T04:54:54;97027.84;;;3.59;100.00
57644;BME280;43474;46.510;6.686;2023-12-28T04:57:20;97034.25;;;3.57;100.00
57644;BME280;43474;46.510;6.686;2023-12-28T04:59:46;96985.47;;;3.33;100.00
57644;BME280;43474;46.510;6.686;2023-12-28T05:02:12;96989.47;;;3.29;100.00
57644;BME280;43474;46.510;6.686;2023-12-28T05:04:37;97021.56;;;3.46;100.00
57644;BME280;43474;46.510;6.686;2023-12-28T05:07:06;96999.09;;;3.51;100.00
57644;BME280;43474;46.510;6.686;2023-12-28T05:09:32;97014.75;;;3.59;100.00
57644;BME280;43474;46.510;6.686;2023-12-28T05:11:57;97031.38;;;3.67;100.00
57644;BME280;43474;46.510;6.686;2023-12-28T05:14:23;96974.19;;;3.32;100.00
57644;BME280;43474;46.510;6.686;2023-12-28T05:16:49;97011.47;;;3.57;100.00
57644;BME280;43474;46.510;6.686;2023-12-28T05:19:15;97028.88;;;3.73;100.00
57644;BME280;43474;46.510;6.686;2023-12-28T05:21:40;96984.16;;;3.52;100.00
57644;BME280;43474;46.510;6.686;2023-12-28T05:24:06;96966.63;;;3.37;100.00
57644;BME280;43474;46.510;6.686;2023-12-28T05:26:32;96994.34;;;3.70;100.00
57644;BME280;43474;46.510;6.686;2023-12-28T05:28:58;96998.50;;;3.64;100.00
57644;BME280;43474;46.510;6.686;2023-12-28T05:31:24;96975.41;;;3.45;100.00
57644;BME280;43474;46.510;6.686;2023-12-28T05:33:49;97022.50;;;3.68;100.00
57644;BME280;43474;46.510;6.686;2023-12-28T05:36:15;96996.94;;;3.32;100.00
57644;BME280;43474;46.510;6.686;2023-12-28T05:38:41;96991.28;;;3.28;100.00
57644;BME280;43474;46.510;6.686;2023-12-28T05:41:06;96962.72;;;3.19;100.00
57644;BME280;43474;46.510;6.686;2023-12-28T05:43:32;96996.72;;;3.42;100.00
57644;BME280;43474;46.510;6.686;2023-12-28T05:45:58;97027.75;;;3.68;100.00
57644;BME280;43474;46.510;6.686;2023-12-28T05:48:23;96986.63;;;3.53;100.00
57644;BME280;43474;46.510;6.686;2023-12-28T05:50:49;96980.47;;;3.46;100.00
57644;BME280;43474;46.510;6.686;2023-12-28T05:53:15;97012.59;;;3.63;100.00
57644;BME280;43474;46.510;6.686;2023-12-28T05:55:41;96980.53;;;3.38;100.00
57644;BME280;43474;46.510;6.686;2023-12-28T05:58:10;97020.97;;;3.58;100.00
57644;BME280;43474;46.510;6.686;2023-12-28T06:00:35;97047.78;;;3.83;100.00
57644;BME280;43474;46.510;6.686;2023-12-28T06:03:08;97037.72;;;3.87;100.00
57644;BME280;43474;46.510;6.686;2023-12-28T06:05:33;96987.50;;;3.46;100.00
57644;BME280;43474;46.510;6.686;2023-12-28T06:07:59;97050.13;;;3.78;100.00
57644;BME280;43474;46.510;6.686;2023-12-28T06:10:25;97015.84;;;3.80;100.00
57644;BME280;43474;46.510;6.686;2023-12-28T06:12:51;97039.63;;;3.78;100.00
57644;BME280;43474;46.510;6.686;2023-12-28T06:15:16;97039.94;;;3.60;100.00
57644;BME280;43474;46.510;6.686;2023-12-28T06:17:42;97040.97;;;3.36;100.00
57644;BME280;43474;46.510;6.686;2023-12-28T06:20:09;97032.94;;;3.15;100.00
57644;BME280;43474;46.510;6.686;2023-12-28T06:22:38;97000.00;;;2.75;100.00
57644;BME280;43474;46.510;6.686;2023-12-28T06:25:03;96995.50;;;2.61;100.00
57644;BME280;43474;46.510;6.686;2023-12-28T06:27:30;97043.09;;;2.87;100.00
57644;BME280;43474;46.510;6.686;2023-12-28T06:29:55;97007.69;;;2.68;100.00
57644;BME280;43474;46.510;6.686;2023-12-28T06:32:21;97038.06;;;2.77;100.00
57644;BME280;43474;46.510;6.686;2023-12-28T06:34:47;97031.84;;;2.78;100.00
57644;BME280;43474;46.510;6.686;2023-12-28T06:37:14;97032.22;;;2.75;100.00
57644;BME280;43474;46.510;6.686;2023-12-28T06:39:40;97011.69;;;2.56;100.00
57644;BME280;43474;46.510;6.686;2023-12-28T06:42:06;97032.72;;;2.71;100.00
57644;BME280;43474;46.510;6.686;2023-12-28T06:44:32;97039.47;;;2.65;100.00
57644;BME280;43474;46.510;6.686;2023-12-28T06:46:58;97002.28;;;2.39;100.00
57644;BME280;43474;46.510;6.686;2023-12-28T06:49:24;97007.50;;;2.39;100.00
57644;BME280;43474;46.510;6.686;2023-12-28T06:51:50;97061.84;;;2.68;100.00
57644;BME280;43474;46.510;6.686;2023-12-28T06:54:15;97041.78;;;2.60;100.00
57644;BME280;43474;46.510;6.686;2023-12-28T06:56:42;97050.75;;;2.66;100.00
57644;BME280;43474;46.510;6.686;2023-12-28T06:59:07;97058.91;;;2.63;100.00
57644;BME280;43474;46.510;6.686;2023-12-28T07:01:41;97058.41;;;2.67;100.00
57644;BME280;43474;46.510;6.686;2023-12-28T07:04:07;97048.41;;;2.71;100.00
57644;BME280;43474;46.510;6.686;2023-12-28T07:06:33;97054.44;;;2.79;100.00
57644;BME280;43474;46.510;6.686;2023-12-28T07:08:59;97039.06;;;2.76;100.00
57644;BME280;43474;46.510;6.686;2023-12-28T07:11:24;97014.44;;;2.63;100.00
57644;BME280;43474;46.510;6.686;2023-12-28T07:13:52;97039.66;;;2.87;100.00
57644;BME280;43474;46.510;6.686;2023-12-28T07:16:18;96984.91;;;2.54;100.00
57644;BME280;43474;46.510;6.686;2023-12-28T07:18:43;97003.06;;;2.78;100.00
57644;BME280;43474;46.510;6.686;2023-12-28T07:21:09;97001.91;;;2.81;100.00
57644;BME280;43474;46.510;6.686;2023-12-28T07:23:35;97037.00;;;2.95;100.00
57644;BME280;43474;46.510;6.686;2023-12-28T07:26:02;97044.34;;;2.99;100.00
57644;BME280;43474;46.510;6.686;2023-12-28T07:28:27;96994.97;;;2.65;100.00
57644;BME280;43474;46.510;6.686;2023-12-28T07:30:53;97025.31;;;3.05;100.00
57644;BME280;43474;46.510;6.686;2023-12-28T07:33:19;97027.41;;;3.10;100.00
57644;BME280;43474;46.510;6.686;2023-12-28T07:35:45;97023.63;;;3.13;100.00
57644;BME280;43474;46.510;6.686;2023-12-28T07:38:11;97031.94;;;3.16;100.00
57644;BME280;43474;46.510;6.686;2023-12-28T07:40:37;96993.66;;;2.92;100.00
57644;BME280;43474;46.510;6.686;2023-12-28T07:43:03;97009.59;;;3.05;100.00
57644;BME280;43474;46.510;6.686;2023-12-28T07:45:29;97039.09;;;3.22;100.00
57644;BME280;43474;46.510;6.686;2023-12-28T07:47:55;96987.66;;;3.06;100.00
57644;BME280;43474;46.510;6.686;2023-12-28T07:50:21;96991.09;;;3.30;100.00
57644;BME280;43474;46.510;6.686;2023-12-28T07:52:48;97030.22;;;3.69;100.00
57644;BME280;43474;46.510;6.686;2023-12-28T07:55:14;97017.47;;;3.81;100.00
57644;BME280;43474;46.510;6.686;2023-12-28T07:57:39;96987.81;;;3.66;100.00
57644;BME280;43474;46.510;6.686;2023-12-28T08:00:06;97025.81;;;3.99;100.00
57644;BME280;43474;46.510;6.686;2023-12-28T08:02:33;96999.78;;;3.83;100.00
57644;BME280;43474;46.510;6.686;2023-12-28T08:05:05;97028.78;;;3.96;100.00
57644;BME280;43474;46.510;6.686;2023-12-28T08:07:31;97025.19;;;3.97;100.00
57644;BME280;43474;46.510;6.686;2023-12-28T08:09:56;97018.31;;;3.96;100.00
57644;BME280;43474;46.510;6.686;2023-12-28T08:12:22;97013.78;;;3.90;100.00
57644;BME280;43474;46.510;6.686;2023-12-28T08:14:50;96984.66;;;3.70;100.00
57644;BME280;43474;46.510;6.686;2023-12-28T08:17:15;96981.22;;;3.70;100.00
57644;BME280;43474;46.510;6.686;2023-12-28T08:19:41;97017.94;;;3.84;100.00
57644;BME280;43474;46.510;6.686;2023-12-28T08:22:07;96956.34;;;3.51;100.00
57644;BME280;43474;46.510;6.686;2023-12-28T08:24:33;96999.47;;;3.78;100.00
57644;BME280;43474;46.510;6.686;2023-12-28T08:26:59;97014.25;;;3.79;100.00
57644;BME280;43474;46.510;6.686;2023-12-28T08:29:26;97017.41;;;3.89;100.00
57644;BME280;43474;46.510;6.686;2023-12-28T08:31:51;97015.78;;;3.88;100.00
57644;BME280;43474;46.510;6.686;2023-12-28T08:34:18;97001.56;;;3.97;100.00
57644;BME280;43474;46.510;6.686;2023-12-28T08:36:43;96984.69;;;3.85;100.00
57644;BME280;43474;46.510;6.686;2023-12-28T08:39:09;96986.84;;;3.96;100.00
57644;BME280;43474;46.510;6.686;2023-12-28T08:41:35;96981.41;;;3.98;100.00
57644;BME280;43474;46.510;6.686;2023-12-28T08:44:01;97016.78;;;4.31;100.00
57644;BME280;43474;46.510;6.686;2023-12-28T08:46:26;96985.75;;;4.20;100.00
57644;BME280;43474;46.510;6.686;2023-12-28T08:48:52;96960.16;;;4.07;100.00
57644;BME280;43474;46.510;6.686;2023-12-28T08:51:18;96979.88;;;4.18;100.00
57644;BME280;43474;46.510;6.686;2023-12-28T08:53:44;97006.53;;;4.36;100.00
57644;BME280;43474;46.510;6.686;2023-12-28T08:56:17;97033.94;;;4.63;100.00
57644;BME280;43474;46.510;6.686;2023-12-28T08:58:44;96984.84;;;4.43;100.00
57644;BME280;43474;46.510;6.686;2023-12-28T09:01:30;97000.28;;;4.52;100.00
57644;BME280;43474;46.510;6.686;2023-12-28T09:03:58;96979.28;;;4.37;100.00
57644;BME280;43474;46.510;6.686;2023-12-28T09:06:24;97019.19;;;4.62;100.00
57644;BME280;43474;46.510;6.686;2023-12-28T09:08:51;97017.81;;;4.66;100.00
57644;BME280;43474;46.510;6.686;2023-12-28T09:11:18;97052.25;;;4.93;100.00
57644;BME280;43474;46.510;6.686;2023-12-28T09:13:44;97041.19;;;4.98;100.00
57644;BME280;43474;46.510;6.686;2023-12-28T09:16:12;97024.53;;;4.90;100.00
57644;BME280;43474;46.510;6.686;2023-12-28T09:18:39;97018.03;;;4.86;100.00
57644;BME280;43474;46.510;6.686;2023-12-28T09:21:06;96978.81;;;4.63;100.00
57644;BME280;43474;46.510;6.686;2023-12-28T09:23:33;97023.31;;;5.08;100.00
57644;BME280;43474;46.510;6.686;2023-12-28T09:26:00;96989.78;;;4.88;100.00
57644;BME280;43474;46.510;6.686;2023-12-28T09:28:29;96991.72;;;4.80;100.00
57644;BME280;43474;46.510;6.686;2023-12-28T09:30:54;96995.19;;;4.87;100.00
57644;BME280;43474;46.510;6.686;2023-12-28T09:33:20;97053.66;;;5.32;100.00
57644;BME280;43474;46.510;6.686;2023-12-28T09:35:47;97036.47;;;5.29;100.00
57644;BME280;43474;46.510;6.686;2023-12-28T09:38:13;97024.25;;;5.22;100.00
57644;BME280;43474;46.510;6.686;2023-12-28T09:40:42;97053.44;;;5.48;100.00
57644;BME280;43474;46.510;6.686;2023-12-28T09:43:23;97007.81;;;5.34;100.00
57644;BME280;43474;46.510;6.686;2023-12-28T09:45:50;97035.13;;;5.89;100.00
57644;BME280;43474;46.510;6.686;2023-12-28T09:48:18;97043.91;;;5.96;100.00
57644;BME280;43474;46.510;6.686;2023-12-28T09:53:16;97023.16;;;6.08;100.00
57644;BME280;43474;46.510;6.686;2023-12-28T09:55:43;96985.38;;;5.88;100.00
57644;BME280;43474;46.510;6.686;2023-12-28T09:58:09;97019.59;;;6.22;100.00
57644;BME280;43474;46.510;6.686;2023-12-28T10:00:35;97010.13;;;6.28;100.00
57644;BME280;43474;46.510;6.686;2023-12-28T10:03:01;97015.28;;;6.56;100.00
57644;BME280;43474;46.510;6.686;2023-12-28T10:05:28;97030.19;;;6.77;100.00
57644;BME280;43474;46.510;6.686;2023-12-28T10:07:55;97035.47;;;6.84;100.00
57644;BME280;43474;46.510;6.686;2023-12-28T10:10:21;97021.25;;;6.71;100.00
57644;BME280;43474;46.510;6.686;2023-12-28T10:12:47;97022.25;;;6.70;100.00
57644;BME280;43474;46.510;6.686;2023-12-28T10:15:13;97026.53;;;6.71;100.00
57644;BME280;43474;46.510;6.686;2023-12-28T10:17:39;97000.34;;;6.63;100.00
57644;BME280;43474;46.510;6.686;2023-12-28T10:20:06;96980.88;;;6.58;100.00
57644;BME280;43474;46.510;6.686;2023-12-28T10:22:36;96979.28;;;6.63;100.00
57644;BME280;43474;46.510;6.686;2023-12-28T10:25:03;97027.41;;;7.05;100.00
57644;BME280;43474;46.510;6.686;2023-12-28T10:27:29;96997.94;;;6.62;100.00
57644;BME280;43474;46.510;6.686;2023-12-28T10:29:55;97017.81;;;6.78;100.00
57644;BME280;43474;46.510;6.686;2023-12-28T10:32:22;97025.00;;;7.04;100.00
57644;BME280;43474;46.510;6.686;2023-12-28T10:34:50;97000.88;;;7.07;100.00
57644;BME280;43474;46.510;6.686;2023-12-28T10:37:19;97021.16;;;7.19;100.00
57644;BME280;43474;46.510;6.686;2023-12-28T10:39:46;96988.69;;;7.06;100.00
57644;BME280;43474;46.510;6.686;2023-12-28T10:42:13;97028.13;;;7.54;100.00
57644;BME280;43474;46.510;6.686;2023-12-28T10:44:44;96995.25;;;7.43;100.00
57644;BME280;43474;46.510;6.686;2023-12-28T10:47:16;97009.66;;;7.87;100.00
57644;BME280;43474;46.510;6.686;2023-12-28T10:49:44;97007.31;;;8.30;100.00
57644;BME280;43474;46.510;6.686;2023-12-28T10:52:16;96993.47;;;8.54;100.00
57644;BME280;43474;46.510;6.686;2023-12-28T10:54:49;97026.06;;;8.87;99.64
57644;BME280;43474;46.510;6.686;2023-12-28T10:57:23;97020.09;;;8.98;100.00
57644;BME280;43474;46.510;6.686;2023-12-28T11:00:07;97015.41;;;9.06;100.00
57644;BME280;43474;46.510;6.686;2023-12-28T11:02:42;96998.50;;;9.07;100.00
57644;BME280;43474;46.510;6.686;2023-12-28T11:05:11;96999.81;;;9.23;100.00
57644;BME280;43474;46.510;6.686;2023-12-28T11:07:40;97007.91;;;9.35;100.00
57644;BME280;43474;46.510;6.686;2023-12-28T11:10:06;97019.00;;;9.50;100.00
57644;BME280;43474;46.510;6.686;2023-12-28T11:12:34;97017.66;;;9.66;100.00
57644;BME280;43474;46.510;6.686;2023-12-28T11:14:59;96987.66;;;9.72;100.00
57644;BME280;43474;46.510;6.686;2023-12-28T11:17:27;96989.59;;;9.83;100.00
57644;BME280;43474;46.510;6.686;2023-12-28T11:19:54;97007.75;;;10.23;100.00
57644;BME280;43474;46.510;6.686;2023-12-28T11:22:22;97014.53;;;9.94;100.00
57644;BME280;43474;46.510;6.686;2023-12-28T11:24:48;96997.25;;;9.92;100.00
57644;BME280;43474;46.510;6.686;2023-12-28T11:27:13;97029.66;;;10.12;100.00
57644;BME280;43474;46.510;6.686;2023-12-28T11:29:41;97020.75;;;10.50;99.50
57644;BME280;43474;46.510;6.686;2023-12-28T11:32:08;97011.53;;;10.52;100.00
57644;BME280;43474;46.510;6.686;2023-12-28T11:34:34;96969.53;;;10.38;99.27
57644;BME280;43474;46.510;6.686;2023-12-28T11:37:03;97000.13;;;10.33;97.27
57644;BME280;43474;46.510;6.686;2023-12-28T11:39:31;96996.75;;;10.63;99.57
57644;BME280;43474;46.510;6.686;2023-12-28T11:42:01;96984.13;;;10.77;98.43
57644;BME280;43474;46.510;6.686;2023-12-28T11:44:53;96998.22;;;10.59;98.41
57644;BME280;43474;46.510;6.686;2023-12-28T11:47:24;96992.72;;;10.42;98.30
57644;BME280;43474;46.510;6.686;2023-12-28T11:49:50;96957.13;;;10.13;98.77
57644;BME280;43474;46.510;6.686;2023-12-28T11:52:26;96988.28;;;10.36;96.57
57644;BME280;43474;46.510;6.686;2023-12-28T11:54:53;96995.88;;;10.32;99.75
57644;BME280;43474;46.510;6.686;2023-12-28T11:57:19;96943.22;;;10.18;97.31
57644;BME280;43474;46.510;6.686;2023-12-28T11:59:44;96947.00;;;10.10;96.31
57644;BME280;43474;46.510;6.686;2023-12-28T12:02:10;96983.91;;;10.23;98.62
57644;BME280;43474;46.510;6.686;2023-12-28T12:04:36;96979.88;;;10.21;95.42
57644;BME280;43474;46.510;6.686;2023-12-28T12:07:03;96981.25;;;10.30;98.81
57644;BME280;43474;46.510;6.686;2023-12-28T12:09:29;96982.13;;;9.99;98.31
57644;BME280;43474;46.510;6.686;2023-12-28T12:12:01;96987.56;;;10.04;95.53
57644;BME280;43474;46.510;6.686;2023-12-28T12:14:27;96982.13;;;9.99;97.73
57644;BME280;43474;46.510;6.686;2023-12-28T12:16:57;96982.50;;;10.02;97.88
57644;BME280;43474;46.510;6.686;2023-12-28T12:19:24;96988.91;;;9.95;95.94
57644;BME280;43474;46.510;6.686;2023-12-28T12:21:55;96990.22;;;10.04;97.73
57644;BME280;43474;46.510;6.686;2023-12-28T12:24:21;96952.63;;;9.95;99.03
57644;BME280;43474;46.510;6.686;2023-12-28T12:26:48;96985.16;;;9.77;100.00
57644;BME280;43474;46.510;6.686;2023-12-28T12:29:18;96981.34;;;9.48;100.00
57644;BME280;43474;46.510;6.686;2023-12-28T12:31:58;96927.69;;;9.16;100.00
57644;BME280;43474;46.510;6.686;2023-12-28T12:34:24;96967.13;;;9.43;100.00
57644;BME280;43474;46.510;6.686;2023-12-28T12:36:49;96943.09;;;8.88;100.00
57644;BME280;43474;46.510;6.686;2023-12-28T12:39:17;96962.25;;;8.83;100.00
57644;BME280;43474;46.510;6.686;2023-12-28T12:41:46;96978.38;;;9.06;100.00
57644;BME280;43474;46.510;6.686;2023-12-28T12:44:11;96951.13;;;9.06;100.00
57644;BME280;43474;46.510;6.686;2023-12-28T12:46:38;96953.84;;;9.24;100.00
57644;BME280;43474;46.510;6.686;2023-12-28T12:49:05;96965.13;;;9.38;100.00
57644;BME280;43474;46.510;6.686;2023-12-28T12:51:31;96932.91;;;9.48;100.00
57644;BME280;43474;46.510;6.686;2023-12-28T12:54:00;96947.06;;;9.60;100.00
57644;BME280;43474;46.510;6.686;2023-12-28T12:56:26;96944.94;;;9.69;100.00
57644;BME280;43474;46.510;6.686;2023-12-28T12:58:56;96920.53;;;9.67;97.36
57644;BME280;43474;46.510;6.686;2023-12-28T13:01:25;96947.69;;;9.80;98.32
57644;BME280;43474;46.510;6.686;2023-12-28T13:03:51;96941.78;;;9.78;98.67